EW2940 Weather Reports


Display with metric or nautical units.
time (UTC)temp
F
wind
direction
speed
MPH
gust
MPH
rain 1hr
in
rain 24hr
in
rain mn
in
humidity
%
barometer
mb
20181115100036 32 234 0.0 0.0 0.00 0.00 0.00 97 1025.4
20181115094542 32 234 0.0 0.0 0.00 0.00 0.00 97 1025.4
20181115093043 32 234 0.0 0.0 0.00 0.00 0.00 97 1025.4
20181115091545 32 234 0.0 0.0 0.00 0.00 0.00 97 1025.5
20181115090019 32 234 0.0 0.0 0.00 0.00 0.00 97 1025.4
20181115084520 33 234 0.0 0.0 0.00 0.00 0.00 96 1025.4
20181115083017 33 234 0.0 0.0 0.00 0.00 0.00 96 1025.7
20181115081520 33 234 0.0 0.0 0.00 0.00 0.00 96 1025.8
20181115080020 33 234 0.0 0.0 0.00 0.00 0.00 95 1025.9
20181115074515 33 234 0.0 0.0 0.00 0.00 0.00 95 1025.8
20181115073019 34 234 0.0 0.0 0.00 0.00 0.00 95 1025.7
20181115071543 34 234 0.0 0.0 0.00 0.00 0.00 94 1025.8
20181115070023 35 234 0.0 0.0 0.00 0.00 0.00 93 1025.8
20181115064503 35 234 0.0 0.0 0.00 0.00 0.00 92 1025.9
20181115063141 36 233 0.0 1.0 0.00 0.00 0.00 92 1025.9
20181115061704 36 226 0.0 2.0 0.00 0.00 0.00 91 1025.8
20181115060127 37 228 0.0 0.0 0.00 0.00 0.00 91 1025.5
20181115054641 37 232 0.0 2.0 0.00 0.00 0.00 90 1025.9
20181115053129 37 221 2.0 7.0 0.00 0.00 0.00 90 1025.8
20181115051619 37 209 0.0 4.0 0.00 0.00 0.00 91 1025.8
20181115050146 37 232 1.0 3.0 0.00 0.00 0.00 90 1026.0
20181115044640 37 234 0.0 5.0 0.00 0.00 0.00 89 1026.1
20181115043140 37 245 2.0 7.0 0.00 0.00 0.00 88 1025.9
20181115041634 37 20 2.0 8.0 0.00 0.00 0.00 88 1026.1
20181115040123 37 360 0.0 5.0 0.00 0.00 0.00 88 1026.3
20181115034635 38 240 4.0 8.0 0.00 0.00 0.00 87 1025.8
20181115033127 38 213 1.0 7.0 0.00 0.00 0.00 87 1026.4
20181115031625 38 238 0.0 9.0 0.00 0.00 0.00 87 1026.1
20181115030130 38 11 2.0 10.0 0.00 0.00 0.00 87 1025.7
20181115024553 38 204 1.0 10.0 0.00 0.00 0.00 87 1026.1
20181115023128 38 242 1.0 6.0 0.00 0.00 0.00 88 1026.3
20181115021608 38 235 4.0 8.0 0.00 0.00 0.00 87 1026.4
20181115020126 39 210 2.0 9.0 0.00 0.00 0.00 87 1026.2
20181115014616 39 209 1.0 9.0 0.00 0.00 0.00 88 1025.9
20181115013046 39 250 1.0 5.0 0.00 0.00 0.00 89 1026.3
20181115011554 39 216 5.0 10.0 0.00 0.00 0.00 89 1025.8
20181115010058 39 230 3.0 9.0 0.00 0.00 0.00 88 1026.4
20181115004600 39 230 2.0 8.0 0.00 0.00 0.00 88 1026.3
20181115003058 39 211 1.0 10.0 0.00 0.00 0.00 88 1026.4
20181115001615 39 18 0.0 8.0 0.00 0.00 0.00 88 1025.5
20181115000100 39 223 4.0 10.0 0.00 0.00 0.00 87 1025.6
20181114234610 39 209 4.0 15.0 0.00 0.00 0.00 87 1025.4
20181114233142 39 250 1.0 10.0 0.00 0.00 0.00 87 1025.3
20181114231615 39 235 6.0 10.0 0.00 0.00 0.00 87 1025.4
20181114230055 40 217 6.0 14.0 0.00 0.00 0.00 86 1025.3
20181114224631 40 220 8.0 15.0 0.00 0.00 0.00 85 1025.4
20181114223052 40 198 7.0 14.0 0.00 0.00 0.00 85 1025.2
20181114221547 41 244 10.0 17.0 0.00 0.00 0.00 83 1025.3
20181114220048 41 234 6.0 15.0 0.00 0.00 0.00 84 1025.2
20181114214613 41 222 8.0 19.0 0.00 0.00 0.00 83 1025.1
20181114213116 42 225 5.0 13.0 0.00 0.00 0.00 83 1025.3
20181114211604 42 243 7.0 16.0 0.00 0.00 0.00 83 1025.0
20181114210107 42 241 6.0 13.0 0.00 0.00 0.00 84 1025.2
20181114204547 42 223 6.0 13.0 0.00 0.00 0.00 84 1025.0
20181114203041 42 18 5.0 11.0 0.00 0.00 0.00 86 1025.1
20181114201545 42 249 4.0 11.0 0.00 0.00 0.00 86 1025.3
20181114200123 41 246 6.0 11.0 0.00 0.00 0.00 87 1025.3
20181114194623 40 208 7.0 12.0 0.00 0.00 0.00 88 1025.2
20181114193033 40 205 8.0 13.0 0.00 0.00 0.00 88 1025.5
20181114191528 40 214 7.0 15.0 0.00 0.00 0.00 88 1025.8
20181114190048 40 195 7.0 14.0 0.00 0.00 0.00 89 1025.8
20181114184540 40 211 6.0 14.0 0.00 0.00 0.00 89 1025.9
20181114183053 40 212 6.0 14.0 0.00 0.00 0.00 88 1026.4
20181114181556 40 213 6.0 11.0 0.00 0.00 0.00 89 1026.8
20181114180045 40 214 7.0 12.0 0.00 0.00 0.00 89 1027.0
20181114174546 40 234 5.0 13.0 0.00 0.00 0.00 90 1027.0
20181114173035 40 247 6.0 12.0 0.00 0.00 0.00 90 1027.4
20181114171557 40 236 8.0 13.0 0.00 0.00 0.00 90 1027.8
20181114170038 39 229 8.0 16.0 0.00 0.00 0.00 91 1027.6
20181114164513 39 226 7.0 13.0 0.00 0.00 0.00 92 1027.9
20181114163010 39 211 3.0 8.0 0.00 0.00 0.00 92 1027.9
20181114161538 39 213 7.0 14.0 0.00 0.00 0.00 91 1027.6
20181114160025 39 229 5.0 12.0 0.00 0.00 0.00 91 1028.3
20181114154507 39 238 4.0 11.0 0.00 0.00 0.00 92 1028.5
20181114153005 39 224 6.0 12.0 0.00 0.00 0.00 93 1028.2
20181114151522 38 204 6.0 13.0 0.00 0.00 0.00 94 1028.0
20181114150005 38 215 4.0 14.0 0.00 0.00 0.00 95 1027.9
20181114144516 38 244 7.0 14.0 0.00 0.00 0.00 95 1028.3
20181114143009 38 207 6.0 9.0 0.00 0.00 0.00 95 1027.7
20181114141642 38 209 8.0 17.0 0.00 0.00 0.00 95 1028.1
20181114140250 39 202 4.0 9.0 0.00 0.00 0.00 94 1028.0
20181114134708 38 5 7.0 15.0 0.00 0.00 0.00 93 1027.4
20181114133207 38 240 5.0 12.0 0.00 0.00 0.00 93 1027.6
20181114131834 38 10 4.0 12.0 0.00 0.00 0.00 93 1028.0
20181114130202 38 212 3.0 10.0 0.00 0.00 0.00 92 1028.0
20181114124651 38 226 5.0 10.0 0.00 0.00 0.00 92 1027.5
20181114123149 38 185 3.0 11.0 0.00 0.00 0.00 93 1027.5
20181114121647 38 242 7.0 12.0 0.00 0.00 0.00 93 1027.4
20181114120124 38 224 6.0 10.0 0.00 0.00 0.00 93 1027.0
20181114114631 38 196 4.0 11.0 0.00 0.00 0.00 93 1026.9
20181114113147 38 234 1.0 12.0 0.00 0.00 0.00 94 1026.7
20181114111642 38 199 5.0 11.0 0.00 0.00 0.00 93 1026.3
20181114110120 38 228 5.0 10.0 0.00 0.00 0.00 93 1025.9
20181114104635 38 228 2.0 9.0 0.00 0.00 0.00 94 1026.4
20181114103138 38 248 7.0 11.0 0.00 0.00 0.00 93 1026.3
20181114101631 38 232 3.0 12.0 0.00 0.00 0.00 94 1025.9